»·PEaware :: N364CM KSBD-KEMT

N364CM :: KSBD-KEMT

FLIGHT INFORMATION

Flight Status: Arrived
Operator: Privately registered:
United States
More flights under this callsign
Pilot: Brian S. (32023)
Aircraft: CESSNA 172 SKYHAWK
(C172)
More flights by this aircraft type
Origin: KSBD San Bernardino Intl
United States
Destination: KEMT El Monte
United States
More flights between these airports :: More routes between these airports
Route:
File this flight plan on PilotEdge
Remarks:
Altitude:
(Current/Filed)
2,500ft
Speed:
(Current/Filed)
135kts
Departed: 13-Jan-21 04:28 PM
Arrived: 13-Jan-21 04:53 PM
Distance/Time
Traveled:
130nm/0:24
Distance/Time
To Go:
Arrived

Flight Plot

Page will automatically refresh every two minutes.


Map Options




Map Legend


Flown Route
Filed Route
Departure Airport
Arrival Airport
Navaid (VOR, NDB)
Fix

Horizontal Profiles

Position Reports

Time Latitude Longitude Heading Altitude Ground
Speed
13-Jan-21 16:06 34.102166 -117.224731 93 1150ft 0kts
13-Jan-21 16:07 34.102166 -117.224731 93 1150ft 0kts
13-Jan-21 16:08 34.102166 -117.224731 93 1150ft 0kts
13-Jan-21 16:09 34.102166 -117.224731 93 1150ft 0kts
13-Jan-21 16:10 34.102166 -117.224731 93 1150ft 0kts
13-Jan-21 16:11 34.102166 -117.224731 93 1150ft 0kts
13-Jan-21 16:12 34.102166 -117.224731 93 1150ft 0kts
13-Jan-21 16:13 34.102166 -117.224731 93 1150ft 0kts
13-Jan-21 16:14 34.102166 -117.224731 93 1150ft 0kts
13-Jan-21 16:15 34.102166 -117.224731 93 1150ft 0kts
13-Jan-21 16:16 34.102166 -117.224731 93 1150ft 0kts
13-Jan-21 16:17 34.102166 -117.224731 93 1150ft 0kts
13-Jan-21 16:18 34.102166 -117.224731 93 1150ft 0kts
13-Jan-21 16:19 34.102166 -117.224731 93 1150ft 0kts
13-Jan-21 16:20 34.102166 -117.224731 93 1150ft 0kts
13-Jan-21 16:21 34.102166 -117.224731 93 1150ft 0kts
13-Jan-21 16:22 34.102166 -117.224731 93 1150ft 0kts
13-Jan-21 16:23 34.102166 -117.224731 93 1150ft 0kts
13-Jan-21 16:24 34.101039 -117.222284 89 1156ft 11kts
13-Jan-21 16:25 34.100905 -117.219793 159 1162ft 0kts
13-Jan-21 16:26 34.100905 -117.219793 159 1162ft 0kts
13-Jan-21 16:27 34.098191 -117.224990 250 1147ft 70kts
13-Jan-21 16:28 34.094314 -117.248699 279 2145ft 72kts
13-Jan-21 16:29 34.097274 -117.281677 275 2281ft 112kts
13-Jan-21 16:30 34.098719 -117.319627 265 2280ft 114kts
13-Jan-21 16:31 34.096695 -117.357949 269 2280ft 114kts
13-Jan-21 16:32 34.096202 -117.396297 269 2280ft 114kts
13-Jan-21 16:33 34.095712 -117.434796 269 2280ft 114kts
13-Jan-21 16:34 34.095227 -117.473194 269 2280ft 114kts
13-Jan-21 16:35 34.094749 -117.511497 269 2280ft 114kts
13-Jan-21 16:36 34.094272 -117.550047 269 2280ft 114kts
13-Jan-21 16:37 34.093803 -117.588343 269 2280ft 114kts
13-Jan-21 16:38 34.093340 -117.626471 269 2280ft 113kts
13-Jan-21 16:39 34.092881 -117.664646 268 2280ft 113kts
13-Jan-21 16:40 34.092428 -117.702763 268 2280ft 113kts
13-Jan-21 16:41 34.091978 -117.740928 268 2280ft 113kts
13-Jan-21 16:42 34.091532 -117.779150 268 2280ft 113kts
13-Jan-21 16:43 34.091093 -117.817177 268 2280ft 113kts
13-Jan-21 16:44 34.090657 -117.855376 269 2280ft 113kts
13-Jan-21 16:45 34.090226 -117.893542 269 2280ft 113kts
13-Jan-21 16:46 34.090779 -117.931642 276 2280ft 113kts
13-Jan-21 16:47 34.102927 -117.949533 36 2341ft 108kts
13-Jan-21 16:48 34.113230 -117.975330 272 1655ft 123kts
13-Jan-21 16:49 34.109962 -118.007161 249 1021ft 83kts
13-Jan-21 16:50 34.100996 -118.025981 217 625ft 64kts
13-Jan-21 16:51 34.085741 -118.034926 209 293ft 41kts
13-Jan-21 16:52 34.083011 -118.035997 116 290ft 0kts
13-Jan-21 16:53 34.084584 -118.035038 24 292ft 14kts
13-Jan-21 16:54 34.085586 -118.033064 34 295ft 0kts
13-Jan-21 16:55 34.085586 -118.033064 34 295ft 0kts
13-Jan-21 16:56 34.085586 -118.033064 34 295ft 0kts
13-Jan-21 17:01 34.422664 -119.835593 340 15ft 0kts
13-Jan-21 17:02 34.422664 -119.835593 340 15ft 0kts
13-Jan-21 17:03 34.422664 -119.835593 340 15ft 0kts
13-Jan-21 17:04 34.422664 -119.835594 340 15ft 0kts
13-Jan-21 17:05 34.422664 -119.835594 340 15ft 0kts
13-Jan-21 17:06 34.422664 -119.835594 340 15ft 0kts

Navigation Log

Ident Type
Flight plan parsing failed, navigation log unavailable